Time;durP1;ratioP1;P1;durP2;ratioP2;P2;SDS_P1;SDS_P2;PMS_P1;PMS_P2;Temp;Humidity;BMP_temperature;BMP_pressure;BME280_temperature;BME280_humidity;BME280_pressure;Samples;Min_cycle;Max_cycle;Signal;HPM_P1;HPM_P2
2023/06/29 00:01:27;;;;;;;16.00;12.40;;;;;;;19.09;86.45;101673.22;4993176;28;20094;-77
2023/06/29 00:03:54;;;;;;;14.55;11.90;;;;;;;19.04;86.65;101679.31;4993469;28;20039;-77
2023/06/29 00:06:20;;;;;;;14.00;12.18;;;;;;;18.98;86.72;101673.84;4993525;28;20046;-77
2023/06/29 00:08:47;;;;;;;14.55;12.88;;;;;;;18.93;87.17;101667.19;4992856;28;20050;-77
2023/06/29 00:11:14;;;;;;;19.58;12.85;;;;;;;18.92;87.63;101668.41;4993344;28;20114;-78
2023/06/29 00:13:41;;;;;;;16.88;13.25;;;;;;;18.92;87.40;101675.75;4992693;28;20043;-77
2023/06/29 00:16:08;;;;;;;14.98;12.57;;;;;;;18.92;87.75;101675.75;4993506;28;20042;-77
2023/06/29 00:18:34;;;;;;;19.70;13.20;;;;;;;18.90;87.72;101678.94;4992538;28;20050;-78
2023/06/29 00:21:03;;;;;;;16.45;12.98;;;;;;;18.89;87.94;101677.44;4993568;28;20046;-77
2023/06/29 00:23:32;;;;;;;15.75;12.50;;;;;;;18.91;87.91;101669.63;4975394;28;20145;-77
2023/06/29 00:25:59;;;;;;;19.23;13.13;;;;;;;18.89;87.94;101674.75;4991850;28;20138;-78
2023/06/29 00:28:25;;;;;;;17.23;13.30;;;;;;;18.87;88.45;101679.88;4992089;28;20114;-77
2023/06/29 00:30:54;;;;;;;19.13;12.60;;;;;;;18.90;88.92;101672.78;4975270;28;20042;-77
2023/06/29 00:33:21;;;;;;;17.95;12.88;;;;;;;18.89;88.49;101672.03;4991515;28;20483;-77
2023/06/29 00:35:48;;;;;;;15.32;12.05;;;;;;;18.87;89.00;101669.06;4992792;28;20043;-77
2023/06/29 00:38:15;;;;;;;16.23;11.90;;;;;;;18.89;88.21;101661.25;4991472;28;20059;-77
2023/06/29 00:40:41;;;;;;;14.10;11.93;;;;;;;18.91;88.25;101666.91;4992610;28;20126;-77
2023/06/29 00:43:08;;;;;;;15.23;12.32;;;;;;;18.89;88.86;101660.50;4992652;28;20129;-77
2023/06/29 00:45:35;;;;;;;15.73;12.52;;;;;;;18.86;89.22;101656.81;4992175;28;20123;-77
2023/06/29 00:48:04;;;;;;;15.93;13.20;;;;;;;18.85;89.68;101651.88;4992987;28;20172;-78
2023/06/29 00:50:33;;;;;;;15.40;13.18;;;;;;;18.86;89.42;101648.72;4990997;28;20058;-78
2023/06/29 00:52:59;;;;;;;21.42;12.43;;;;;;;18.86;89.96;101654.09;4991596;28;20053;-78
2023/06/29 00:55:26;;;;;;;19.05;13.13;;;;;;;18.87;89.09;101652.91;4992486;28;20114;-78
2023/06/29 00:57:53;;;;;;;15.80;12.90;;;;;;;18.85;89.47;101641.84;4974761;28;20436;-78
2023/06/29 01:00:20;;;;;;;15.38;12.70;;;;;;;18.84;89.44;101632.25;4974543;28;20047;-78
2023/06/29 01:02:48;;;;;;;18.25;13.20;;;;;;;18.84;89.46;101621.47;4991147;28;20074;-78
2023/06/29 01:05:16;;;;;;;20.60;13.57;;;;;;;18.84;89.54;101626.88;4975188;28;20043;-78
2023/06/29 01:07:59;;;;;;;14.68;12.88;;;;;;;18.85;89.50;101633.75;4992208;28;20045;-78
2023/06/29 01:10:29;;;;;;;15.88;11.98;;;;;;;18.87;89.96;101622.47;4992216;28;20595;-78
2023/06/29 01:12:59;;;;;;;17.50;12.80;;;;;;;18.86;90.42;101624.44;4992356;28;20038;-78
2023/06/29 01:15:26;;;;;;;16.02;12.50;;;;;;;18.85;89.77;101630.31;4992205;28;20050;-78
2023/06/29 01:17:55;;;;;;;22.67;13.25;;;;;;;18.83;90.76;101628.09;4992515;28;20500;-78
2023/06/29 01:20:25;;;;;;;14.98;12.70;;;;;;;18.83;90.48;101624.66;4974747;28;20504;-77
2023/06/29 01:22:59;;;;;;;15.02;12.07;;;;;;;18.85;90.55;101617.56;4991250;28;20415;-77
2023/06/29 01:25:29;;;;;;;20.02;13.23;;;;;;;18.86;90.48;101626.41;4990291;28;20480;-77
2023/06/29 01:27:56;;;;;;;19.75;13.18;;;;;;;18.85;90.74;101627.59;4992577;28;20106;-78
2023/06/29 01:30:23;;;;;;;16.50;13.60;;;;;;;18.83;90.65;101633.47;4992292;28;20516;-77
2023/06/29 01:32:49;;;;;;;19.00;14.10;;;;;;;18.82;90.34;101631.25;4991053;28;20047;-77
2023/06/29 01:35:16;;;;;;;15.75;12.70;;;;;;;18.81;91.29;101629.78;4991032;28;20555;-77
2023/06/29 01:37:56;;;;;;;20.65;12.52;;;;;;;18.82;91.13;101628.56;4991635;28;20063;-77
2023/06/29 01:40:27;;;;;;;19.67;12.60;;;;;;;18.82;91.29;101621.22;4991897;28;20129;-77
2023/06/29 01:42:56;;;;;;;17.17;13.70;;;;;;;18.80;91.07;101622.91;4978081;28;20054;-77
2023/06/29 01:45:24;;;;;;;19.20;13.75;;;;;;;18.78;91.18;101619.97;4995479;28;20423;-77
2023/06/29 01:47:55;;;;;;;17.40;13.32;;;;;;;18.75;90.90;101621.66;4995636;28;20054;-77
2023/06/29 01:50:22;;;;;;;21.77;14.38;;;;;;;18.75;91.43;101616.25;4995353;28;20093;-77
2023/06/29 01:52:49;;;;;;;20.90;14.80;;;;;;;18.74;91.44;101612.06;4995671;28;20049;-77
2023/06/29 01:55:16;;;;;;;19.35;13.63;;;;;;;18.73;91.27;101613.28;4995351;28;20053;-77
2023/06/29 01:57:42;;;;;;;18.83;13.48;;;;;;;18.75;91.28;101612.81;4995070;28;20530;-77
2023/06/29 02:00:10;;;;;;;20.52;14.43;;;;;;;18.73;91.32;101613.28;4993910;28;20526;-77
2023/06/29 02:02:39;;;;;;;16.92;13.50;;;;;;;18.72;91.98;101609.09;4994812;28;20043;-77
2023/06/29 02:05:07;;;;;;;21.75;14.45;;;;;;;18.72;91.47;101606.41;4995588;28;20047;-77
2023/06/29 02:07:34;;;;;;;18.35;14.25;;;;;;;18.72;91.78;101600.28;4977209;28;20139;-77
2023/06/29 02:10:00;;;;;;;20.63;14.23;;;;;;;18.71;92.27;101604.19;4993429;28;20606;-77
2023/06/29 02:12:27;;;;;;;16.05;14.35;;;;;;;18.70;92.29;101598.06;4994955;28;20134;-77
2023/06/29 02:14:53;;;;;;;22.08;14.82;;;;;;;18.71;92.80;101596.09;4977521;28;20401;-77
2023/06/29 02:17:20;;;;;;;20.83;14.73;;;;;;;18.69;93.23;101599.28;4976881;28;20604;-77
2023/06/29 02:19:47;;;;;;;20.67;14.65;;;;;;;18.69;92.86;101593.88;4993414;28;20059;-77
2023/06/29 02:22:13;;;;;;;19.83;14.63;;;;;;;18.70;92.89;101592.66;4995324;28;20125;-77
2023/06/29 02:24:40;;;;;;;18.60;14.80;;;;;;;18.69;93.10;101588.47;4976791;28;20043;-77
2023/06/29 02:27:06;;;;;;;17.58;14.00;;;;;;;18.71;93.51;101594.13;4995452;28;20042;-77
2023/06/29 02:29:33;;;;;;;21.30;14.80;;;;;;;18.72;93.44;101590.22;4977181;28;20460;-78
2023/06/29 02:32:00;;;;;;;20.90;15.05;;;;;;;18.73;93.16;101580.94;4994735;28;20043;-78
2023/06/29 02:34:27;;;;;;;20.55;14.88;;;;;;;18.73;92.66;101582.88;4994640;28;20483;-78
2023/06/29 02:36:54;;;;;;;25.35;15.80;;;;;;;18.71;93.71;101574.53;4994956;28;20545;-78
2023/06/29 02:39:23;;;;;;;19.85;15.90;;;;;;;18.69;93.73;101579.66;4992734;28;20053;-78
2023/06/29 02:41:50;;;;;;;21.25;16.05;;;;;;;18.69;93.98;101576.97;4993495;28;20047;-77
2023/06/29 02:44:17;;;;;;;23.00;15.80;;;;;;;18.69;93.41;101571.56;4993485;28;20074;-78
2023/06/29 02:46:44;;;;;;;21.27;15.23;;;;;;;18.68;94.08;101568.13;4976813;28;20635;-78
2023/06/29 02:49:11;;;;;;;18.80;15.50;;;;;;;18.65;94.57;101564.41;4977319;28;20470;-78
2023/06/29 02:51:38;;;;;;;22.08;16.48;;;;;;;18.63;95.10;101574.19;4992202;28;20047;-77
2023/06/29 02:54:07;;;;;;;21.90;15.82;;;;;;;18.62;95.12;101567.31;4976591;28;20051;-77
2023/06/29 02:56:34;;;;;;;20.73;15.82;;;;;;;18.61;95.29;101563.88;4994173;28;20049;-77
2023/06/29 02:59:03;;;;;;;21.00;15.90;;;;;;;18.61;94.47;101565.84;4994525;28;20077;-77
2023/06/29 03:01:29;;;;;;;22.15;15.95;;;;;;;18.61;95.04;101557.75;4993879;28;20133;-78
2023/06/29 03:03:57;;;;;;;21.25;16.08;;;;;;;18.61;94.67;101563.88;4993053;28;20047;-78
2023/06/29 03:06:25;;;;;;;21.63;15.73;;;;;;;18.61;95.00;101560.44;4975934;28;20051;-78
2023/06/29 03:08:52;;;;;;;22.38;15.57;;;;;;;18.60;95.57;101565.09;4993772;28;20043;-77
2023/06/29 03:11:18;;;;;;;23.67;15.75;;;;;;;18.59;95.40;101558.19;4993953;28;20066;-78
2023/06/29 03:13:46;;;;;;;20.40;15.40;;;;;;;18.56;96.28;101563.78;4993890;28;20098;-78
2023/06/29 03:16:13;;;;;;;20.95;15.50;;;;;;;18.55;96.08;101560.38;4994500;28;20053;-78
2023/06/29 03:18:39;;;;;;;25.02;16.20;;;;;;;18.54;96.04;101558.13;4993809;28;20133;-78
2023/06/29 03:21:06;;;;;;;20.55;16.15;;;;;;;18.52;96.19;101552.47;4994445;28;20531;-77
2023/06/29 03:23:43;;;;;;;26.25;16.42;;;;;;;18.49;96.67;101559.56;4993472;28;20054;-77
2023/06/29 03:26:09;;;;;;;19.65;15.70;;;;;;;18.48;96.97;101560.78;4993916;28;20401;-77
2023/06/29 03:28:36;;;;;;;20.90;15.88;;;;;;;18.49;97.60;101556.13;4993196;28;20050;-77
2023/06/29 03:31:02;;;;;;;27.33;17.02;;;;;;;18.47;98.58;101547.78;4993984;28;20082;-76
2023/06/29 03:33:29;;;;;;;27.63;17.23;;;;;;;18.47;99.55;101548.50;4993350;28;20444;-77
2023/06/29 03:35:56;;;;;;;23.27;16.60;;;;;;;18.47;99.65;101540.41;4975941;28;20058;-77
2023/06/29 03:38:22;;;;;;;22.13;16.50;;;;;;;18.48;99.64;101547.28;4975912;28;20134;-77
2023/06/29 03:40:49;;;;;;;26.63;17.27;;;;;;;18.46;99.88;101538.94;4993459;28;20481;-77
2023/06/29 03:43:15;;;;;;;20.38;15.90;;;;;;;18.45;100.00;101542.84;4976286;28;20055;-77
2023/06/29 03:45:42;;;;;;;26.00;17.33;;;;;;;18.45;100.00;101544.81;4993343;28;20043;-77
2023/06/29 03:48:09;;;;;;;22.25;16.23;;;;;;;18.44;99.94;101543.31;4993818;28;20601;-77
2023/06/29 03:50:36;;;;;;;23.55;16.75;;;;;;;18.44;100.00;101541.38;4992790;28;20054;-77
2023/06/29 03:53:02;;;;;;;24.25;17.42;;;;;;;18.43;100.00;101539.16;4993586;28;20053;-76
2023/06/29 03:55:29;;;;;;;25.38;17.02;;;;;;;18.41;100.00;101536.91;4993039;28;20051;-76
2023/06/29 03:57:57;;;;;;;21.10;16.23;;;;;;;18.41;100.00;101533.50;4993730;28;20039;-77
2023/06/29 04:00:24;;;;;;;22.88;16.48;;;;;;;18.43;100.00;101531.06;4993174;28;20047;-76
2023/06/29 04:02:51;;;;;;;23.10;16.13;;;;;;;18.45;100.00;101525.94;4993615;28;20062;-76
2023/06/29 04:05:18;;;;;;;26.25;16.45;;;;;;;18.45;100.00;101532.06;4992208;28;20114;-77
2023/06/29 04:07:45;;;;;;;23.65;16.55;;;;;;;18.45;100.00;101531.31;4992981;28;20051;-77
2023/06/29 04:10:11;;;;;;;21.65;16.33;;;;;;;18.42;100.00;101529.56;4993217;28;20102;-77
2023/06/29 04:12:38;;;;;;;24.17;16.15;;;;;;;18.42;100.00;101532.28;4991416;28;20487;-77
2023/06/29 04:15:05;;;;;;;24.27;17.40;;;;;;;18.42;100.00;101526.88;4975918;28;20496;-77
2023/06/29 04:17:32;;;;;;;20.45;15.90;;;;;;;18.42;100.00;101529.56;4992852;28;20451;-77
2023/06/29 04:19:58;;;;;;;26.15;16.95;;;;;;;18.41;100.00;101520.00;4975500;28;20078;-77
2023/06/29 04:22:25;;;;;;;26.08;17.08;;;;;;;18.41;100.00;101518.06;4992257;28;20546;-77
2023/06/29 04:24:51;;;;;;;20.80;15.85;;;;;;;18.44;100.00;101513.66;4991828;28;20086;-77
2023/06/29 04:27:18;;;;;;;27.60;17.52;;;;;;;18.45;100.00;101515.16;4993170;28;20523;-77
2023/06/29 04:29:45;;;;;;;24.58;16.88;;;;;;;18.45;100.00;101515.16;4992908;28;20119;-76
2023/06/29 04:32:11;;;;;;;23.77;17.00;;;;;;;18.45;100.00;101515.88;4993140;28;20057;-77
2023/06/29 04:34:38;;;;;;;26.88;17.10;;;;;;;18.46;100.00;101516.63;4991989;28;20046;-76
2023/06/29 04:37:06;;;;;;;26.73;17.27;;;;;;;18.48;100.00;101509.56;4992953;28;20049;-77
2023/06/29 04:39:33;;;;;;;22.77;17.55;;;;;;;18.52;100.00;101510.09;4992274;28;20133;-76
2023/06/29 04:42:03;;;;;;;24.48;17.23;;;;;;;18.54;100.00;101506.91;4992980;28;20070;-76
2023/06/29 04:44:32;;;;;;;25.48;18.02;;;;;;;18.53;100.00;101508.13;4992092;28;20467;-76
2023/06/29 04:47:00;;;;;;;26.23;17.25;;;;;;;18.54;100.00;101506.91;4991576;28;20046;-76
2023/06/29 04:49:31;;;;;;;27.48;17.77;;;;;;;18.56;100.00;101499.09;4992086;28;20051;-76
2023/06/29 04:51:59;;;;;;;27.73;18.05;;;;;;;18.57;100.00;101497.88;4992763;28;20527;-76
2023/06/29 04:54:27;;;;;;;27.35;17.67;;;;;;;18.61;100.00;101495.75;4992442;28;20143;-76
2023/06/29 04:56:56;;;;;;;29.48;18.40;;;;;;;18.63;100.00;101504.09;4992845;28;20038;-77
2023/06/29 04:59:24;;;;;;;24.23;17.88;;;;;;;18.65;100.00;101499.69;4992792;28;20043;-77
2023/06/29 05:01:50;;;;;;;28.80;19.02;;;;;;;18.67;100.00;101506.56;4992966;28;20728;-77
2023/06/29 05:04:17;;;;;;;22.88;17.55;;;;;;;18.69;100.00;101509.53;4975047;28;20086;-77
2023/06/29 05:06:44;;;;;;;26.33;18.27;;;;;;;18.73;100.00;101510.06;4993104;28;20074;-77
2023/06/29 05:09:11;;;;;;;23.67;17.45;;;;;;;18.77;100.00;101507.91;4975558;28;20042;-78
2023/06/29 05:11:37;;;;;;;24.52;18.63;;;;;;;18.83;100.00;101500.56;4992275;28;20059;-77
2023/06/29 05:14:04;;;;;;;28.33;18.73;;;;;;;18.84;100.00;101500.09;4993345;28;20512;-77
2023/06/29 05:16:30;;;;;;;30.33;18.85;;;;;;;18.89;100.00;101498.66;4992456;28;20047;-77
2023/06/29 05:18:57;;;;;;;25.38;18.15;;;;;;;18.92;100.00;101505.78;4992768;28;20043;-77
2023/06/29 05:21:26;;;;;;;25.60;17.73;;;;;;;18.90;100.00;101500.13;4992913;28;20098;-77
2023/06/29 05:23:52;;;;;;;27.90;17.98;;;;;;;18.92;100.00;101500.41;4993133;28;20050;-78
2023/06/29 05:26:19;;;;;;;30.15;18.33;;;;;;;18.94;100.00;101497.97;4975720;28;20050;-77
2023/06/29 05:28:45;;;;;;;30.05;18.92;;;;;;;18.97;100.00;101495.03;4993478;28;20119;-77
2023/06/29 05:31:30;;;;;;;28.30;19.17;;;;;;;18.97;100.00;101486.22;4992807;28;20077;-76
2023/06/29 05:33:57;;;;;;;24.70;17.63;;;;;;;18.97;100.00;101489.66;4992663;28;20043;-76
2023/06/29 05:36:23;;;;;;;26.35;18.88;;;;;;;19.00;100.00;101485.25;4992654;28;20066;-76
2023/06/29 05:38:50;;;;;;;22.75;17.35;;;;;;;19.05;100.00;101487.25;4992653;28;20053;-78
2023/06/29 05:41:16;;;;;;;28.80;18.70;;;;;;;19.08;100.00;101480.91;4992772;28;20055;-78
2023/06/29 05:43:43;;;;;;;22.95;16.88;;;;;;;19.09;99.84;101479.69;4993102;28;20089;-77
2023/06/29 05:46:10;;;;;;;27.80;17.10;;;;;;;19.15;99.49;101475.06;4992870;28;20050;-75
2023/06/29 05:48:37;;;;;;;29.33;18.98;;;;;;;19.19;99.00;101474.84;4992226;28;20067;-79
2023/06/29 05:51:03;;;;;;;23.77;17.45;;;;;;;19.21;98.43;101478.50;4991253;28;20078;-79
2023/06/29 05:53:31;;;;;;;25.35;17.27;;;;;;;19.27;98.71;101475.84;4992389;28;20043;-79
2023/06/29 05:55:58;;;;;;;25.20;17.55;;;;;;;19.27;98.20;101479.28;4992590;28;20102;-77
2023/06/29 05:58:24;;;;;;;25.63;18.35;;;;;;;19.27;98.05;101482.00;4975206;28;20077;-75
2023/06/29 06:00:51;;;;;;;23.90;17.83;;;;;;;19.27;98.43;101482.00;4974870;28;20518;-79
2023/06/29 06:03:20;;;;;;;26.17;18.08;;;;;;;19.29;97.65;101487.66;4992500;28;20058;-78
2023/06/29 06:05:46;;;;;;;23.30;17.85;;;;;;;19.28;98.17;101480.03;4992501;28;20130;-79
2023/06/29 06:08:13;;;;;;;24.77;18.05;;;;;;;19.28;98.34;101483.47;4991659;28;20049;-80
2023/06/29 06:10:41;;;;;;;33.05;18.90;;;;;;;19.29;97.57;101490.34;4991698;28;20055;-78
2023/06/29 06:13:09;;;;;;;32.88;18.90;;;;;;;19.32;97.07;101492.09;4992793;28;20051;-79
2023/06/29 06:15:35;;;;;;;26.55;18.00;;;;;;;19.34;97.47;101488.91;4991839;28;20043;-79
2023/06/29 06:18:02;;;;;;;28.85;18.20;;;;;;;19.35;96.71;101490.38;4975279;28;20074;-80
2023/06/29 06:20:29;;;;;;;28.20;18.30;;;;;;;19.39;96.32;101490.16;4991958;28;20813;-79
2023/06/29 06:22:55;;;;;;;30.42;18.48;;;;;;;19.38;96.00;101494.09;4974559;28;20074;-80
2023/06/29 06:25:22;;;;;;;32.50;19.25;;;;;;;19.40;95.36;101491.63;4974097;28;20488;-79
2023/06/29 06:27:49;;;;;;;28.80;19.55;;;;;;;19.40;94.87;101486.25;4976654;28;20050;-80
2023/06/29 06:30:15;;;;;;;27.60;18.60;;;;;;;19.40;94.94;101480.84;4977302;28;20051;-80
2023/06/29 06:32:42;;;;;;;26.50;18.50;;;;;;;19.44;93.88;101484.06;4995513;28;20081;-80
2023/06/29 06:35:09;;;;;;;29.60;18.75;;;;;;;19.50;93.45;101490.22;4995522;28;20047;-80
2023/06/29 06:37:36;;;;;;;26.25;18.85;;;;;;;19.55;93.34;101486.84;4995306;28;20125;-79
2023/06/29 06:40:07;;;;;;;28.05;18.88;;;;;;;19.59;92.13;101481.97;4995365;28;20050;-80
2023/06/29 06:42:35;;;;;;;;;;;;;;;19.70;92.46;101484.69;4995835;28;20505;-80
2023/06/29 06:45:05;;;;;;;25.17;18.25;;;;;;;19.76;91.51;101474.66;4995200;28;19926;-79
2023/06/29 06:47:36;;;;;;;27.13;18.48;;;;;;;19.83;90.96;101481.56;4995461;28;20420;-80
2023/06/29 06:50:04;;;;;;;32.83;18.90;;;;;;;19.86;90.18;101475.19;4977457;28;20086;-80
2023/06/29 06:52:30;;;;;;;25.73;18.13;;;;;;;19.93;89.77;101477.41;4994682;28;20768;-84
2023/06/29 06:54:57;;;;;;;26.90;19.52;;;;;;;19.91;89.02;101488.72;4995146;28;20563;-82
2023/06/29 06:57:24;;;;;;;29.98;19.40;;;;;;;19.89;88.92;101476.91;4994855;28;20075;-80
2023/06/29 06:59:50;;;;;;;26.55;18.60;;;;;;;19.86;89.10;101489.44;4994656;28;20051;-81
2023/06/29 07:02:17;;;;;;;24.20;18.25;;;;;;;19.89;89.12;101483.06;4977932;28;20047;-81
2023/06/29 07:04:44;;;;;;;28.88;19.15;;;;;;;19.87;87.68;101479.38;4977468;28;20082;-81
2023/06/29 07:07:10;;;;;;;24.30;18.45;;;;;;;19.85;86.92;101481.81;4995088;28;20070;-82
2023/06/29 07:09:37;;;;;;;25.75;18.27;;;;;;;19.85;86.74;101487.22;4993126;28;20055;-82
2023/06/29 07:12:04;;;;;;;26.88;18.35;;;;;;;19.85;86.86;101479.09;4994724;28;20157;-83
2023/06/29 07:14:31;;;;;;;26.88;18.90;;;;;;;19.86;85.42;101486.00;4994239;28;20498;-82
2023/06/29 07:16:58;;;;;;;24.95;17.55;;;;;;;19.89;85.76;101485.03;4994833;28;20082;-81
2023/06/29 07:19:25;;;;;;;26.88;18.42;;;;;;;19.89;85.86;101482.31;4994235;28;20042;-81
2023/06/29 07:21:54;;;;;;;24.13;17.00;;;;;;;19.94;85.80;101487.75;4994959;28;20054;-81
2023/06/29 07:24:24;;;;;;;26.85;18.58;;;;;;;19.95;85.67;101474.97;4994516;28;20051;-82
2023/06/29 07:26:50;;;;;;;28.88;18.33;;;;;;;20.01;84.92;101474.97;4977323;28;20084;-81
2023/06/29 07:29:17;;;;;;;28.98;19.08;;;;;;;19.98;85.01;101477.44;4994510;28;20523;-81
2023/06/29 07:31:44;;;;;;;28.30;18.73;;;;;;;20.07;85.31;101481.13;4994644;28;20055;-82
2023/06/29 07:34:10;;;;;;;25.63;18.15;;;;;;;20.12;86.04;101481.16;4994442;28;20542;-82
2023/06/29 07:36:39;;;;;;;24.70;18.23;;;;;;;20.21;84.63;101480.94;4976727;28;20074;-82
2023/06/29 07:39:05;;;;;;;32.00;18.40;;;;;;;20.26;83.52;101484.88;4993141;28;20071;-83
2023/06/29 07:41:32;;;;;;;26.35;18.80;;;;;;;20.29;83.78;101487.34;4994296;28;20062;-81
2023/06/29 07:43:59;;;;;;;27.42;18.15;;;;;;;20.34;84.06;101483.16;4994375;28;20050;-81
2023/06/29 07:46:27;;;;;;;24.75;17.95;;;;;;;20.36;84.01;101477.28;4994165;28;20049;-81
2023/06/29 07:48:54;;;;;;;31.63;19.15;;;;;;;20.46;84.42;101470.41;4994576;28;20050;-82
2023/06/29 07:51:21;;;;;;;29.27;19.08;;;;;;;20.54;83.58;101480.25;4994171;28;20070;-81
2023/06/29 07:53:50;;;;;;;27.85;19.20;;;;;;;20.66;82.77;101483.72;4994536;28;20086;-82
2023/06/29 07:56:17;;;;;;;25.13;18.63;;;;;;;20.83;82.96;101481.72;4994264;28;20043;-82
2023/06/29 07:58:44;;;;;;;30.85;19.20;;;;;;;21.08;81.45;101485.41;4993837;28;20109;-81
2023/06/29 08:01:11;;;;;;;27.17;19.05;;;;;;;21.21;80.54;101471.34;4994182;28;20051;-83
2023/06/29 08:03:38;;;;;;;23.60;18.13;;;;;;;21.27;80.25;101482.91;4976338;28;20055;-83
2023/06/29 08:06:26;;;;;;;29.20;19.42;;;;;;;21.49;79.31;101472.03;4976095;28;20081;-79
2023/06/29 08:08:55;;;;;;;27.05;19.48;;;;;;;21.75;78.47;101473.66;4994215;28;20067;-79
2023/06/29 08:11:23;;;;;;;26.05;19.38;;;;;;;21.85;77.86;101469.41;4992542;28;20065;-85
2023/06/29 08:13:49;;;;;;;24.08;18.40;;;;;;;22.09;76.14;101468.81;4994099;28;20047;-84
2023/06/29 08:16:16;;;;;;;29.17;20.13;;;;;;;22.42;75.62;101473.25;4976348;28;20486;-81
2023/06/29 08:18:43;;;;;;;27.17;19.38;;;;;;;22.81;73.66;101462.13;4994006;28;20232;-85
2023/06/29 08:21:10;;;;;;;28.17;19.67;;;;;;;23.23;72.66;101463.41;4994103;28;20054;-80
2023/06/29 08:23:37;;;;;;;25.50;19.42;;;;;;;23.36;69.73;101462.78;4993922;28;20559;-80
2023/06/29 08:26:04;;;;;;;29.45;19.85;;;;;;;23.09;72.47;101459.88;4993246;28;20047;-80
2023/06/29 08:28:31;;;;;;;24.52;19.90;;;;;;;22.98;72.78;101464.69;4993803;28;20058;-80
2023/06/29 08:30:57;;;;;;;25.50;19.88;;;;;;;22.81;71.82;101465.56;4993863;28;20047;-84
2023/06/29 08:33:24;;;;;;;27.08;20.40;;;;;;;22.61;72.21;101457.84;4993607;28;20053;-77
2023/06/29 08:35:51;;;;;;;27.88;19.67;;;;;;;22.52;72.54;101460.84;4993600;28;20043;-78
2023/06/29 08:38:18;;;;;;;27.27;21.02;;;;;;;22.35;73.04;101468.41;4993872;28;20542;-77
2023/06/29 08:40:49;;;;;;;30.75;21.05;;;;;;;22.33;73.18;101468.16;4992600;28;20126;-77
2023/06/29 08:43:17;;;;;;;29.27;20.70;;;;;;;22.36;73.62;101473.31;4992009;28;20047;-80
2023/06/29 08:45:45;;;;;;;29.27;21.13;;;;;;;22.33;73.78;101468.16;4993408;28;20067;-78
2023/06/29 08:48:13;;;;;;;26.45;21.17;;;;;;;22.31;73.44;101465.22;4993402;28;20069;-76
2023/06/29 08:51:00;;;;;;;24.27;20.50;;;;;;;22.39;73.75;101477.00;4992360;28;20082;-77
2023/06/29 08:53:27;;;;;;;23.45;20.02;;;;;;;22.44;72.85;101466.09;4993254;28;20043;-77
2023/06/29 08:55:56;;;;;;;29.25;20.92;;;;;;;22.51;72.84;101467.53;4992731;28;20039;-77
2023/06/29 08:58:23;;;;;;;27.00;20.77;;;;;;;22.62;72.58;101464.72;4993103;28;20134;-78
2023/06/29 09:00:52;;;;;;;26.58;20.75;;;;;;;22.80;70.76;101461.38;4993077;28;20137;-77
2023/06/29 09:03:21;;;;;;;26.38;19.92;;;;;;;23.04;69.67;101465.38;4993057;28;20047;-75
2023/06/29 09:05:48;;;;;;;26.70;20.52;;;;;;;23.50;70.20;101464.38;4992967;28;20074;-79
2023/06/29 09:08:14;;;;;;;24.63;19.60;;;;;;;23.67;66.80;101461.44;4993211;28;20460;-79
2023/06/29 09:10:41;;;;;;;25.63;21.17;;;;;;;23.64;67.76;101455.06;4992003;28;20062;-78
2023/06/29 09:13:09;;;;;;;26.15;19.80;;;;;;;23.86;67.58;101457.50;4993335;28;20053;-77
2023/06/29 09:15:38;;;;;;;27.20;20.08;;;;;;;24.09;65.94;101455.19;4992730;28;20142;-78
2023/06/29 09:18:05;;;;;;;23.95;20.10;;;;;;;24.37;65.28;101449.34;4992783;28;20042;-78
2023/06/29 09:20:35;;;;;;;23.70;19.38;;;;;;;24.50;64.68;101452.09;4992719;28;20055;-77
2023/06/29 09:23:06;;;;;;;22.17;19.77;;;;;;;24.41;65.21;101457.19;4993371;28;20526;-78
2023/06/29 09:25:33;;;;;;;24.73;19.83;;;;;;;24.31;63.83;101450.69;4992259;28;20050;-78
2023/06/29 09:28:05;;;;;;;26.42;19.45;;;;;;;24.20;64.15;101451.56;4993049;28;20444;-76
2023/06/29 09:30:39;;;;;;;;;;;;;;;24.17;65.94;101452.59;4993309;28;20051;-77
2023/06/29 09:33:11;;;;;;;23.92;19.50;;;;;;;23.93;65.31;101451.47;5008228;28;19932;-78
2023/06/29 09:35:44;;;;;;;26.30;20.13;;;;;;;23.97;65.39;101448.44;4992513;28;20089;-78
2023/06/29 09:38:12;;;;;;;25.05;19.05;;;;;;;24.06;65.08;101447.31;4991239;28;20121;-78
2023/06/29 09:40:52;;;;;;;24.40;19.58;;;;;;;24.26;64.74;101444.09;4991373;28;20042;-78
2023/06/29 09:43:28;;;;;;;25.67;19.58;;;;;;;24.62;66.34;101449.19;4991686;28;20118;-78
2023/06/29 09:46:12;;;;;;;22.52;19.00;;;;;;;24.52;64.77;101446.13;4991479;28;20114;-78
2023/06/29 09:48:46;;;;;;;24.45;20.02;;;;;;;24.33;63.41;101442.75;4991927;28;20575;-78
2023/06/29 09:51:20;;;;;;;26.33;18.77;;;;;;;24.39;63.49;101446.13;4992364;28;20122;-77
2023/06/29 09:53:47;;;;;;;22.98;18.30;;;;;;;24.39;62.43;101446.13;4992209;28;20042;-79
2023/06/29 09:56:16;;;;;;;25.40;19.20;;;;;;;24.34;63.49;101449.66;4974935;28;20199;-80
2023/06/29 09:58:43;;;;;;;21.70;18.38;;;;;;;24.47;63.87;101447.69;4992277;28;20102;-78
2023/06/29 10:01:09;;;;;;;24.45;17.75;;;;;;;24.63;63.03;101443.22;4992692;28;20583;-79
2023/06/29 10:03:36;;;;;;;26.80;19.45;;;;;;;24.60;62.97;101445.00;4995492;28;20074;-79
2023/06/29 10:06:13;;;;;;;23.20;17.45;;;;;;;24.78;62.82;101451.63;4978140;28;20061;-83
2023/06/29 10:08:41;;;;;;;21.75;17.63;;;;;;;24.81;62.31;101445.13;4995350;28;20129;-78
2023/06/29 10:11:08;;;;;;;22.48;17.08;;;;;;;24.82;60.47;101449.31;4995416;28;20051;-78
2023/06/29 10:13:49;;;;;;;21.23;17.38;;;;;;;24.86;62.03;101447.00;4978044;28;20054;-81
2023/06/29 10:16:21;;;;;;;20.15;17.20;;;;;;;24.78;61.53;101443.47;4995900;28;20065;-78
2023/06/29 10:18:50;;;;;;;22.85;17.75;;;;;;;24.70;61.91;101444.59;4996345;28;20042;-79
2023/06/29 10:21:17;;;;;;;21.40;17.23;;;;;;;24.79;61.84;101446.91;4995689;28;20487;-79
2023/06/29 10:23:45;;;;;;;23.25;17.70;;;;;;;24.80;62.25;101440.94;4995564;28;20047;-82
2023/06/29 10:26:12;;;;;;;23.92;17.63;;;;;;;24.81;63.04;101442.41;4995868;28;20043;-78
2023/06/29 10:28:39;;;;;;;26.17;18.33;;;;;;;24.80;63.02;101435.47;4994071;28;20079;-77
2023/06/29 10:31:06;;;;;;;20.58;16.77;;;;;;;24.85;62.47;101437.38;4995492;28;20106;-78
2023/06/29 10:33:45;;;;;;;26.05;17.63;;;;;;;24.96;62.72;101441.91;4995346;28;20392;-77
2023/06/29 10:36:13;;;;;;;22.50;16.23;;;;;;;24.98;62.08;101438.69;4995787;28;20508;-78
2023/06/29 10:38:40;;;;;;;21.42;17.92;;;;;;;25.09;61.22;101427.56;4994837;28;20047;-78
2023/06/29 10:41:07;;;;;;;26.65;18.25;;;;;;;25.22;61.08;101441.91;4995486;28;20055;-78
2023/06/29 10:43:56;;;;;;;23.95;18.05;;;;;;;25.33;60.95;101435.50;4995076;28;20057;-77
2023/06/29 10:46:44;;;;;;;21.13;17.17;;;;;;;25.57;61.39;101437.25;4995416;28;20118;-78
2023/06/29 10:49:24;;;;;;;25.08;16.88;;;;;;;25.97;60.33;101432.44;4995736;28;20190;-78
2023/06/29 10:52:15;;;;;;;19.50;16.83;;;;;;;26.06;57.77;101436.66;4977030;28;20130;-78
2023/06/29 10:54:42;;;;;;;21.85;17.15;;;;;;;26.10;57.03;101429.63;4993669;28;20058;-78
2023/06/29 10:57:10;;;;;;;21.90;16.73;;;;;;;26.19;57.52;101428.44;4995271;28;20083;-78
2023/06/29 10:59:38;;;;;;;22.48;16.90;;;;;;;26.54;55.19;101425.09;4977427;28;20054;-78
2023/06/29 11:02:07;;;;;;;26.80;17.38;;;;;;;26.51;55.45;101417.97;4995057;28;20054;-78
2023/06/29 11:04:34;;;;;;;22.10;16.48;;;;;;;26.75;55.41;101408.69;4994684;28;20126;-78
2023/06/29 11:07:06;;;;;;;23.42;17.65;;;;;;;26.82;55.28;101412.69;4994470;28;20051;-78
2023/06/29 11:09:34;;;;;;;21.45;16.90;;;;;;;26.44;54.37;101412.44;4994840;28;20047;-78
2023/06/29 11:12:00;;;;;;;19.30;16.60;;;;;;;26.38;56.69;101414.63;4977329;28;20055;-78
2023/06/29 11:14:28;;;;;;;20.90;15.52;;;;;;;26.28;55.91;101410.88;4994384;28;20430;-77